createdAt,value
2022-09-21T00:00:44.522Z,107.90
2022-09-21T00:06:08.348Z,108.17
2022-09-21T00:11:01.270Z,107.90
2022-09-21T00:16:01.241Z,108.66
2022-09-21T00:21:01.152Z,108.87
2022-09-21T00:26:01.067Z,109.22
2022-09-21T00:31:01.073Z,109.29
2022-09-21T00:36:00.903Z,110.08
2022-09-21T00:41:00.851Z,110.29
2022-09-21T00:46:00.837Z,110.65
2022-09-21T00:51:00.731Z,110.58
2022-09-21T00:56:00.651Z,110.80
2022-09-21T01:01:00.661Z,111.09
2022-09-21T01:06:00.542Z,111.53
2022-09-21T01:11:00.498Z,111.83
2022-09-21T01:16:00.487Z,112.13
2022-09-21T01:21:00.336Z,112.35
2022-09-21T01:26:00.255Z,113.10
2022-09-21T01:31:00.187Z,113.64
2022-09-21T01:36:00.110Z,113.94
2022-09-21T01:41:00.096Z,114.17
2022-09-21T01:46:00.024Z,114.48
2022-09-21T01:50:59.928Z,114.72
2022-09-21T01:55:59.847Z,114.56
2022-09-21T02:00:59.955Z,114.56
2022-09-21T02:05:59.729Z,114.17
2022-09-21T02:10:59.647Z,114.25
2022-09-21T02:15:59.631Z,113.79
2022-09-21T02:20:59.552Z,113.79
2022-09-21T02:25:59.551Z,114.02
2022-09-21T02:30:59.459Z,114.17
2022-09-21T02:35:59.346Z,113.79
2022-09-21T02:40:59.250Z,113.94
2022-09-21T02:45:59.171Z,113.18
2022-09-21T02:50:59.145Z,113.33
2022-09-21T02:55:59.056Z,112.95
2022-09-21T03:00:59.042Z,112.95
2022-09-21T03:05:59.006Z,113.64
2022-09-21T03:10:58.842Z,112.95
2022-09-21T03:15:58.793Z,113.18
2022-09-21T03:20:58.698Z,113.18
2022-09-21T03:25:58.645Z,113.10
2022-09-21T03:30:58.684Z,112.05
2022-09-21T03:35:59.986Z,112.57
2022-09-21T03:40:58.464Z,112.50
2022-09-21T03:45:58.603Z,112.80
2022-09-21T03:50:58.319Z,113.10
2022-09-21T03:55:58.228Z,112.80
2022-09-21T04:00:58.185Z,112.88
2022-09-21T04:05:58.115Z,112.88
2022-09-21T04:10:58.015Z,113.18
2022-09-21T04:16:07.581Z,113.03
2022-09-21T04:20:59.935Z,113.03
2022-09-21T04:25:59.957Z,113.33
2022-09-21T04:30:59.839Z,113.25
2022-09-21T04:35:59.767Z,113.71
2022-09-21T04:40:59.739Z,113.79
2022-09-21T04:45:59.660Z,113.71
2022-09-21T04:50:59.641Z,114.02
2022-09-21T04:55:59.588Z,114.17
2022-09-21T05:00:59.431Z,114.33
2022-09-21T05:05:59.357Z,114.56
2022-09-21T05:10:59.260Z,115.11
2022-09-21T05:15:59.254Z,115.19
2022-09-21T05:20:59.195Z,115.50
2022-09-21T05:25:59.106Z,115.98
2022-09-21T05:31:16.815Z,115.90
2022-09-21T05:35:59.942Z,116.30
2022-09-21T05:40:58.912Z,116.62
2022-09-21T05:45:58.923Z,116.70
2022-09-21T05:50:58.809Z,116.46
2022-09-21T05:55:58.677Z,116.46
2022-09-21T06:00:58.696Z,116.46
2022-09-21T06:05:58.570Z,116.30
2022-09-21T06:10:58.453Z,115.74
2022-09-21T06:15:58.510Z,115.50
2022-09-21T06:20:59.334Z,115.27
2022-09-21T06:25:58.884Z,114.56
2022-09-21T06:30:58.308Z,114.02
2022-09-21T06:35:58.198Z,113.71
2022-09-21T06:40:58.083Z,113.10
2022-09-21T06:45:58.105Z,113.64
2022-09-21T06:50:57.956Z,112.88
2022-09-21T06:55:57.954Z,113.18
2022-09-21T07:00:58.120Z,112.50
2022-09-21T07:05:57.766Z,112.50
2022-09-21T07:10:57.687Z,111.24
2022-09-21T07:15:57.641Z,111.31
2022-09-21T07:20:57.562Z,111.09
2022-09-21T07:25:57.472Z,111.53
2022-09-21T07:30:57.499Z,110.95
2022-09-21T07:35:57.579Z,109.93
2022-09-21T07:40:57.303Z,109.51
2022-09-21T07:45:57.233Z,108.38
2022-09-21T07:50:57.130Z,108.17
2022-09-21T07:55:57.037Z,108.10
2022-09-21T08:00:57.122Z,107.48
2022-09-21T08:05:56.984Z,106.80
2022-09-21T08:10:56.902Z,107.28
2022-09-21T08:15:56.796Z,105.47
2022-09-21T08:20:56.737Z,105.34
2022-09-21T08:25:56.699Z,104.68
2022-09-21T08:30:56.617Z,103.91
2022-09-21T08:35:56.527Z,103.46
2022-09-21T08:40:56.477Z,103.59
2022-09-21T08:45:56.396Z,103.02
2022-09-21T08:50:56.364Z,102.83
2022-09-21T08:55:56.252Z,102.03
2022-09-21T09:00:56.211Z,101.23
2022-09-21T09:05:56.111Z,100.15
2022-09-21T09:10:56.052Z,99.32
2022-09-21T09:15:56.058Z,98.05
2022-09-21T09:20:55.936Z,97.71
2022-09-21T09:25:55.891Z,96.48
2022-09-21T09:30:55.829Z,95.12
2022-09-21T09:35:55.753Z,93.91
2022-09-21T09:40:55.665Z,94.36
2022-09-21T09:45:55.665Z,93.94
2022-09-21T09:50:55.509Z,92.09
2022-09-21T09:55:55.480Z,89.36
2022-09-21T10:00:55.366Z,85.21
2022-09-21T10:05:55.438Z,81.27
2022-09-21T10:10:55.317Z,77.39
2022-09-21T10:15:55.317Z,69.49
2022-09-21T10:20:55.090Z,62.44
2022-09-21T10:25:55.140Z,56.77
2022-09-21T10:30:55.047Z,52.04
2022-09-21T10:35:55.010Z,48.71
2022-09-21T10:40:54.843Z,46.05
2022-09-21T10:45:55.006Z,43.67
2022-09-21T10:50:54.688Z,41.44
2022-09-21T10:56:11.804Z,40.26
2022-09-21T11:00:55.612Z,38.81
2022-09-21T11:05:54.584Z,37.74
2022-09-21T11:10:54.467Z,37.27
2022-09-21T11:15:54.513Z,36.62
2022-09-21T11:20:54.337Z,36.03
2022-09-21T11:25:54.222Z,35.52
2022-09-21T11:30:54.198Z,35.25
2022-09-21T11:35:54.069Z,35.02
2022-09-21T11:40:54.065Z,35.04
2022-09-21T11:45:54.028Z,34.81
2022-09-21T11:50:53.984Z,34.93
2022-09-21T11:55:53.828Z,35.49
2022-09-21T12:00:53.875Z,36.22
2022-09-21T12:05:53.743Z,36.95
2022-09-21T12:10:53.630Z,37.84
2022-09-21T12:15:53.595Z,38.60
2022-09-21T12:20:53.493Z,39.50
2022-09-21T12:25:53.428Z,40.14
2022-09-21T12:30:54.601Z,40.92
2022-09-21T12:35:53.369Z,41.69
2022-09-21T12:40:53.219Z,42.66
2022-09-21T12:45:53.194Z,43.67
2022-09-21T12:50:53.079Z,44.50
2022-09-21T12:55:53.116Z,44.97
2022-09-21T13:00:53.114Z,45.65
2022-09-21T13:05:52.939Z,46.82
2022-09-21T13:10:55.099Z,47.66
2022-09-21T13:15:52.743Z,48.21
2022-09-21T13:20:52.672Z,49.08
2022-09-21T13:25:52.625Z,50.04
2022-09-21T13:30:52.540Z,51.01
2022-09-21T13:35:52.465Z,51.07
2022-09-21T13:40:52.422Z,51.57
2022-09-21T13:45:52.412Z,52.30
2022-09-21T13:50:52.301Z,52.76
2022-09-21T13:55:52.203Z,54.43
2022-09-21T14:00:52.331Z,56.09
2022-09-21T14:05:52.167Z,57.90
2022-09-21T14:10:52.005Z,59.20
2022-09-21T14:15:52.021Z,61.44
2022-09-21T14:20:51.864Z,63.05
2022-09-21T14:25:51.803Z,65.04
2022-09-21T14:30:51.736Z,66.79
2022-09-21T14:35:51.954Z,68.64
2022-09-21T14:40:51.596Z,69.78
2022-09-21T14:45:51.689Z,71.19
2022-09-21T14:50:51.575Z,72.04
2022-09-21T14:55:51.384Z,73.29
2022-09-21T15:00:51.417Z,74.39
2022-09-21T15:05:51.287Z,74.85
2022-09-21T15:10:55.120Z,75.73
2022-09-21T15:15:51.177Z,76.55
2022-09-21T15:20:51.125Z,77.75
2022-09-21T15:25:51.009Z,77.39
2022-09-21T15:30:50.910Z,78.18
2022-09-21T15:35:50.844Z,78.18
2022-09-21T15:40:50.839Z,78.11
2022-09-21T15:45:50.704Z,77.61
2022-09-21T15:50:50.632Z,78.40
2022-09-21T15:55:50.593Z,77.97
2022-09-21T16:00:50.562Z,78.55
2022-09-21T16:05:50.454Z,78.40
2022-09-21T16:10:50.379Z,78.40
2022-09-21T16:15:50.336Z,78.69
2022-09-21T16:20:50.241Z,79.28
2022-09-21T16:25:50.410Z,80.96
2022-09-21T16:30:50.168Z,81.58
2022-09-21T16:35:50.101Z,82.14
2022-09-21T16:40:49.977Z,83.03
2022-09-21T16:45:49.892Z,83.52
2022-09-21T16:50:49.832Z,84.02
2022-09-21T16:55:49.771Z,84.61
2022-09-21T17:00:54.685Z,85.99
2022-09-21T17:05:49.671Z,87.33
2022-09-21T17:10:49.595Z,87.96
2022-09-21T17:15:49.549Z,88.24
2022-09-21T17:20:49.743Z,90.41
2022-09-21T17:25:49.370Z,90.80
2022-09-21T17:30:49.353Z,91.89
2022-09-21T17:35:49.276Z,93.21
2022-09-21T17:40:50.575Z,93.73
2022-09-21T17:45:49.116Z,94.78
2022-09-21T17:50:49.023Z,94.59
2022-09-21T17:55:48.989Z,95.29
2022-09-21T18:00:48.909Z,96.26
2022-09-21T18:05:48.831Z,97.83
2022-09-21T18:10:48.764Z,98.05
2022-09-21T18:15:48.724Z,98.80
2022-09-21T18:20:48.617Z,99.73
2022-09-21T18:25:48.552Z,100.15
2022-09-21T18:30:48.528Z,100.81
2022-09-21T18:35:48.400Z,100.99
2022-09-21T18:40:48.454Z,101.90
2022-09-21T18:45:48.247Z,103.08
2022-09-21T18:50:48.341Z,103.46
2022-09-21T18:55:48.190Z,104.29
2022-09-21T19:00:48.162Z,105.27
2022-09-21T19:05:48.082Z,106.74
2022-09-21T19:10:47.960Z,106.87
2022-09-21T19:16:00.513Z,107.21
2022-09-21T19:20:48.800Z,108.80
2022-09-21T19:25:49.861Z,109.08
2022-09-21T19:30:47.724Z,110.37
2022-09-21T19:35:47.605Z,110.58
2022-09-21T19:40:47.608Z,111.17
2022-09-21T19:45:47.497Z,112.88
2022-09-21T19:50:47.428Z,112.43
2022-09-21T19:55:47.348Z,112.65
2022-09-21T20:00:49.217Z,113.03
2022-09-21T20:05:47.203Z,113.48
2022-09-21T20:10:47.129Z,113.41
2022-09-21T20:15:47.122Z,113.25
2022-09-21T20:20:46.988Z,113.94
2022-09-21T20:25:46.901Z,114.33
2022-09-21T20:30:46.895Z,114.87
2022-09-21T20:35:46.806Z,114.25
2022-09-21T20:40:46.831Z,114.72
2022-09-21T20:45:46.730Z,115.11
2022-09-21T20:50:46.564Z,114.95
2022-09-21T20:55:46.518Z,115.42
2022-09-21T21:00:46.554Z,116.30
2022-09-21T21:05:46.489Z,116.06
2022-09-21T21:10:46.374Z,117.02
2022-09-21T21:15:46.269Z,116.14
2022-09-21T21:20:46.220Z,117.51
2022-09-21T21:25:46.112Z,117.43
2022-09-21T21:30:46.021Z,118.75
2022-09-21T21:35:46.005Z,118.42
2022-09-21T21:40:45.984Z,118.67
2022-09-21T21:45:45.877Z,119.17
2022-09-21T21:50:45.791Z,119.43
2022-09-21T21:55:45.706Z,119.85
2022-09-21T22:00:45.662Z,119.68
2022-09-21T22:05:45.598Z,119.94
2022-09-21T22:10:45.500Z,120.28
2022-09-21T22:15:45.444Z,121.40
2022-09-21T22:20:45.434Z,121.05
2022-09-21T22:25:45.333Z,121.40
2022-09-21T22:30:45.236Z,122.02
2022-09-21T22:35:45.185Z,122.37
2022-09-21T22:40:45.159Z,122.19
2022-09-21T22:45:45.120Z,122.37
2022-09-21T22:50:44.983Z,122.02
2022-09-21T22:55:44.924Z,122.02
2022-09-21T23:00:44.866Z,122.46
2022-09-21T23:05:44.762Z,122.91
2022-09-21T23:10:44.708Z,123.18
2022-09-21T23:15:44.750Z,123.99
2022-09-21T23:20:44.575Z,124.45
2022-09-21T23:25:44.524Z,124.63
2022-09-21T23:30:44.443Z,125.28
2022-09-21T23:35:44.403Z,125.65
2022-09-21T23:40:44.397Z,125.93
2022-09-21T23:45:44.269Z,126.69
2022-09-21T23:50:44.189Z,127.17
2022-09-21T23:55:44.134Z,127.65
